sensor_id;sensor_type;location;lat;lon;timestamp;P1;durP1;ratioP1;P2;durP2;ratioP2
36827;SDS011;22766;48.042;11.192;2022-09-21T00:01:07;3.05;;;1.50;;
36827;SDS011;22766;48.042;11.192;2022-09-21T00:03:36;2.95;;;1.42;;
36827;SDS011;22766;48.042;11.192;2022-09-21T00:06:08;2.80;;;1.35;;
36827;SDS011;22766;48.042;11.192;2022-09-21T00:08:36;4.47;;;1.60;;
36827;SDS011;22766;48.042;11.192;2022-09-21T00:11:04;2.40;;;1.27;;
36827;SDS011;22766;48.042;11.192;2022-09-21T00:13:32;3.70;;;1.20;;
36827;SDS011;22766;48.042;11.192;2022-09-21T00:15:59;2.17;;;1.75;;
36827;SDS011;22766;48.042;11.192;2022-09-21T00:18:25;2.35;;;1.33;;
36827;SDS011;22766;48.042;11.192;2022-09-21T00:20:53;2.05;;;1.23;;
36827;SDS011;22766;48.042;11.192;2022-09-21T00:23:20;3.45;;;1.45;;
36827;SDS011;22766;48.042;11.192;2022-09-21T00:25:46;2.63;;;1.48;;
36827;SDS011;22766;48.042;11.192;2022-09-21T00:28:13;2.25;;;1.13;;
36827;SDS011;22766;48.042;11.192;2022-09-21T00:30:40;1.70;;;1.20;;
36827;SDS011;22766;48.042;11.192;2022-09-21T00:33:07;1.88;;;1.00;;
36827;SDS011;22766;48.042;11.192;2022-09-21T00:35:33;2.20;;;0.90;;
36827;SDS011;22766;48.042;11.192;2022-09-21T00:38:00;4.43;;;1.17;;
36827;SDS011;22766;48.042;11.192;2022-09-21T00:40:28;2.88;;;0.95;;
36827;SDS011;22766;48.042;11.192;2022-09-21T00:43:14;2.83;;;0.90;;
36827;SDS011;22766;48.042;11.192;2022-09-21T00:45:42;1.85;;;1.20;;
36827;SDS011;22766;48.042;11.192;2022-09-21T00:48:12;2.80;;;1.13;;
36827;SDS011;22766;48.042;11.192;2022-09-21T00:50:41;2.45;;;1.02;;
36827;SDS011;22766;48.042;11.192;2022-09-21T00:53:16;1.40;;;0.90;;
36827;SDS011;22766;48.042;11.192;2022-09-21T00:55:44;1.30;;;1.05;;
36827;SDS011;22766;48.042;11.192;2022-09-21T00:58:20;1.10;;;0.90;;
36827;SDS011;22766;48.042;11.192;2022-09-21T01:00:53;2.47;;;1.52;;
36827;SDS011;22766;48.042;11.192;2022-09-21T01:03:22;1.73;;;1.15;;
36827;SDS011;22766;48.042;11.192;2022-09-21T01:05:48;3.78;;;1.38;;
36827;SDS011;22766;48.042;11.192;2022-09-21T01:08:15;2.63;;;1.55;;
36827;SDS011;22766;48.042;11.192;2022-09-21T01:16:15;2.55;;;1.13;;
36827;SDS011;22766;48.042;11.192;2022-09-21T01:24:57;4.32;;;1.02;;
36827;SDS011;22766;48.042;11.192;2022-09-21T01:30:19;2.35;;;0.70;;
36827;SDS011;22766;48.042;11.192;2022-09-21T01:35:24;1.52;;;1.00;;
36827;SDS011;22766;48.042;11.192;2022-09-21T01:38:04;1.00;;;0.90;;
36827;SDS011;22766;48.042;11.192;2022-09-21T01:40:37;1.50;;;0.88;;
36827;SDS011;22766;48.042;11.192;2022-09-21T01:43:08;3.25;;;0.80;;
36827;SDS011;22766;48.042;11.192;2022-09-21T01:45:40;1.20;;;0.73;;
36827;SDS011;22766;48.042;11.192;2022-09-21T01:50:40;0.98;;;0.77;;
36827;SDS011;22766;48.042;11.192;2022-09-21T01:53:16;1.38;;;0.85;;
36827;SDS011;22766;48.042;11.192;2022-09-21T01:55:51;0.93;;;0.80;;
36827;SDS011;22766;48.042;11.192;2022-09-21T02:00:54;1.00;;;0.90;;
36827;SDS011;22766;48.042;11.192;2022-09-21T02:03:33;1.67;;;0.90;;
36827;SDS011;22766;48.042;11.192;2022-09-21T02:06:04;2.35;;;0.93;;
36827;SDS011;22766;48.042;11.192;2022-09-21T02:08:32;1.45;;;0.82;;
36827;SDS011;22766;48.042;11.192;2022-09-21T02:10:59;1.13;;;0.85;;
36827;SDS011;22766;48.042;11.192;2022-09-21T02:13:29;1.30;;;0.60;;
36827;SDS011;22766;48.042;11.192;2022-09-21T02:16:07;1.45;;;0.88;;
36827;SDS011;22766;48.042;11.192;2022-09-21T02:21:33;1.50;;;0.90;;
36827;SDS011;22766;48.042;11.192;2022-09-21T02:24:12;1.15;;;0.70;;
36827;SDS011;22766;48.042;11.192;2022-09-21T02:26:44;1.25;;;0.90;;
36827;SDS011;22766;48.042;11.192;2022-09-21T02:29:19;0.65;;;0.60;;
36827;SDS011;22766;48.042;11.192;2022-09-21T02:32:02;2.15;;;0.60;;
36827;SDS011;22766;48.042;11.192;2022-09-21T02:34:34;1.08;;;0.80;;
36827;SDS011;22766;48.042;11.192;2022-09-21T02:37:27;0.70;;;0.70;;
36827;SDS011;22766;48.042;11.192;2022-09-21T02:40:09;1.17;;;0.73;;
36827;SDS011;22766;48.042;11.192;2022-09-21T02:43:00;2.05;;;0.80;;
36827;SDS011;22766;48.042;11.192;2022-09-21T02:45:36;0.60;;;0.60;;
36827;SDS011;22766;48.042;11.192;2022-09-21T02:48:12;0.98;;;0.70;;
36827;SDS011;22766;48.042;11.192;2022-09-21T02:53:18;0.43;;;0.43;;
36827;SDS011;22766;48.042;11.192;2022-09-21T02:55:49;1.08;;;0.60;;
36827;SDS011;22766;48.042;11.192;2022-09-21T02:58:21;1.98;;;0.80;;
36827;SDS011;22766;48.042;11.192;2022-09-21T03:00:53;1.10;;;0.70;;
36827;SDS011;22766;48.042;11.192;2022-09-21T03:03:22;0.80;;;0.63;;
36827;SDS011;22766;48.042;11.192;2022-09-21T03:05:52;0.60;;;0.50;;
36827;SDS011;22766;48.042;11.192;2022-09-21T03:08:20;1.08;;;0.55;;
36827;SDS011;22766;48.042;11.192;2022-09-21T03:10:47;0.88;;;0.60;;
36827;SDS011;22766;48.042;11.192;2022-09-21T03:13:16;4.28;;;0.60;;
36827;SDS011;22766;48.042;11.192;2022-09-21T03:15:43;4.00;;;0.77;;
36827;SDS011;22766;48.042;11.192;2022-09-21T03:18:11;1.15;;;1.02;;
36827;SDS011;22766;48.042;11.192;2022-09-21T03:20:39;0.80;;;0.50;;
36827;SDS011;22766;48.042;11.192;2022-09-21T03:23:11;1.23;;;0.80;;
36827;SDS011;22766;48.042;11.192;2022-09-21T03:25:38;1.55;;;0.75;;
36827;SDS011;22766;48.042;11.192;2022-09-21T03:28:05;1.30;;;0.80;;
36827;SDS011;22766;48.042;11.192;2022-09-21T03:30:32;0.85;;;0.70;;
36827;SDS011;22766;48.042;11.192;2022-09-21T03:32:58;1.92;;;0.77;;
36827;SDS011;22766;48.042;11.192;2022-09-21T03:35:25;1.67;;;0.70;;
36827;SDS011;22766;48.042;11.192;2022-09-21T03:37:54;2.90;;;0.60;;
36827;SDS011;22766;48.042;11.192;2022-09-21T03:40:20;2.15;;;0.60;;
36827;SDS011;22766;48.042;11.192;2022-09-21T03:42:48;2.60;;;0.98;;
36827;SDS011;22766;48.042;11.192;2022-09-21T03:45:14;2.30;;;0.75;;
36827;SDS011;22766;48.042;11.192;2022-09-21T03:47:41;1.67;;;0.90;;
36827;SDS011;22766;48.042;11.192;2022-09-21T03:50:10;0.90;;;0.65;;
36827;SDS011;22766;48.042;11.192;2022-09-21T03:52:37;1.02;;;0.65;;
36827;SDS011;22766;48.042;11.192;2022-09-21T03:55:04;2.90;;;0.93;;
36827;SDS011;22766;48.042;11.192;2022-09-21T03:57:33;1.88;;;1.15;;
36827;SDS011;22766;48.042;11.192;2022-09-21T04:00:03;0.73;;;0.68;;
36827;SDS011;22766;48.042;11.192;2022-09-21T04:02:34;1.35;;;0.82;;
36827;SDS011;22766;48.042;11.192;2022-09-21T04:05:03;3.70;;;0.80;;
36827;SDS011;22766;48.042;11.192;2022-09-21T04:07:30;2.63;;;0.60;;
36827;SDS011;22766;48.042;11.192;2022-09-21T04:10:00;0.82;;;0.70;;
36827;SDS011;22766;48.042;11.192;2022-09-21T04:12:27;0.88;;;0.50;;
36827;SDS011;22766;48.042;11.192;2022-09-21T04:14:54;1.33;;;0.70;;
36827;SDS011;22766;48.042;11.192;2022-09-21T04:17:21;1.13;;;0.60;;
36827;SDS011;22766;48.042;11.192;2022-09-21T04:19:47;1.85;;;0.90;;
36827;SDS011;22766;48.042;11.192;2022-09-21T04:22:14;2.45;;;1.08;;
36827;SDS011;22766;48.042;11.192;2022-09-21T04:24:40;1.05;;;0.80;;
36827;SDS011;22766;48.042;11.192;2022-09-21T04:27:07;1.08;;;0.60;;
36827;SDS011;22766;48.042;11.192;2022-09-21T04:29:35;1.35;;;1.00;;
36827;SDS011;22766;48.042;11.192;2022-09-21T04:32:02;4.35;;;1.15;;
36827;SDS011;22766;48.042;11.192;2022-09-21T04:34:30;2.45;;;1.00;;
36827;SDS011;22766;48.042;11.192;2022-09-21T04:36:57;1.88;;;1.00;;
36827;SDS011;22766;48.042;11.192;2022-09-21T04:39:24;3.15;;;1.13;;
36827;SDS011;22766;48.042;11.192;2022-09-21T04:41:51;8.40;;;2.90;;
36827;SDS011;22766;48.042;11.192;2022-09-21T04:44:18;13.27;;;4.78;;
36827;SDS011;22766;48.042;11.192;2022-09-21T04:46:44;4.07;;;2.38;;
36827;SDS011;22766;48.042;11.192;2022-09-21T04:49:11;5.78;;;2.05;;
36827;SDS011;22766;48.042;11.192;2022-09-21T04:51:37;3.95;;;2.08;;
36827;SDS011;22766;48.042;11.192;2022-09-21T04:54:04;4.72;;;1.85;;
36827;SDS011;22766;48.042;11.192;2022-09-21T04:56:32;3.45;;;1.75;;
36827;SDS011;22766;48.042;11.192;2022-09-21T04:58:59;2.25;;;1.40;;
36827;SDS011;22766;48.042;11.192;2022-09-21T05:01:26;3.45;;;2.05;;
36827;SDS011;22766;48.042;11.192;2022-09-21T05:03:53;3.53;;;1.65;;
36827;SDS011;22766;48.042;11.192;2022-09-21T05:06:19;2.83;;;1.83;;
36827;SDS011;22766;48.042;11.192;2022-09-21T05:08:46;7.68;;;2.47;;
36827;SDS011;22766;48.042;11.192;2022-09-21T05:11:31;3.83;;;1.70;;
36827;SDS011;22766;48.042;11.192;2022-09-21T05:13:58;2.40;;;1.55;;
36827;SDS011;22766;48.042;11.192;2022-09-21T05:16:25;5.82;;;1.90;;
36827;SDS011;22766;48.042;11.192;2022-09-21T05:18:52;3.35;;;1.80;;
36827;SDS011;22766;48.042;11.192;2022-09-21T05:21:20;3.50;;;1.95;;
36827;SDS011;22766;48.042;11.192;2022-09-21T05:23:47;4.50;;;2.08;;
36827;SDS011;22766;48.042;11.192;2022-09-21T05:26:14;8.95;;;2.08;;
36827;SDS011;22766;48.042;11.192;2022-09-21T05:28:40;3.92;;;2.15;;
36827;SDS011;22766;48.042;11.192;2022-09-21T05:31:25;3.28;;;1.48;;
36827;SDS011;22766;48.042;11.192;2022-09-21T05:33:55;2.17;;;1.15;;
36827;SDS011;22766;48.042;11.192;2022-09-21T05:36:48;4.00;;;1.60;;
36827;SDS011;22766;48.042;11.192;2022-09-21T05:39:24;5.93;;;1.80;;
36827;SDS011;22766;48.042;11.192;2022-09-21T05:41:51;5.72;;;1.73;;
36827;SDS011;22766;48.042;11.192;2022-09-21T05:44:18;2.58;;;1.80;;
36827;SDS011;22766;48.042;11.192;2022-09-21T05:46:58;3.67;;;1.52;;
36827;SDS011;22766;48.042;11.192;2022-09-21T05:49:27;1.67;;;1.30;;
36827;SDS011;22766;48.042;11.192;2022-09-21T05:54:55;2.17;;;1.20;;
36827;SDS011;22766;48.042;11.192;2022-09-21T05:57:35;3.03;;;1.42;;
36827;SDS011;22766;48.042;11.192;2022-09-21T06:00:17;4.05;;;0.93;;
36827;SDS011;22766;48.042;11.192;2022-09-21T06:07:53;1.08;;;0.80;;
36827;SDS011;22766;48.042;11.192;2022-09-21T06:10:20;0.77;;;0.70;;
36827;SDS011;22766;48.042;11.192;2022-09-21T06:12:49;4.15;;;1.52;;
36827;SDS011;22766;48.042;11.192;2022-09-21T06:15:16;2.67;;;1.00;;
36827;SDS011;22766;48.042;11.192;2022-09-21T06:17:43;2.92;;;1.08;;
36827;SDS011;22766;48.042;11.192;2022-09-21T06:20:09;3.45;;;1.25;;
36827;SDS011;22766;48.042;11.192;2022-09-21T06:22:36;2.65;;;0.77;;
36827;SDS011;22766;48.042;11.192;2022-09-21T06:25:02;3.95;;;1.50;;
36827;SDS011;22766;48.042;11.192;2022-09-21T06:27:29;2.67;;;1.48;;
36827;SDS011;22766;48.042;11.192;2022-09-21T06:29:56;7.90;;;1.63;;
36827;SDS011;22766;48.042;11.192;2022-09-21T06:32:22;2.17;;;1.27;;
36827;SDS011;22766;48.042;11.192;2022-09-21T06:34:49;1.88;;;1.40;;
36827;SDS011;22766;48.042;11.192;2022-09-21T06:37:16;1.17;;;1.00;;
36827;SDS011;22766;48.042;11.192;2022-09-21T06:39:42;1.15;;;1.05;;
36827;SDS011;22766;48.042;11.192;2022-09-21T06:42:09;1.80;;;1.00;;
36827;SDS011;22766;48.042;11.192;2022-09-21T06:44:35;1.98;;;0.90;;
36827;SDS011;22766;48.042;11.192;2022-09-21T06:47:02;2.28;;;1.23;;
36827;SDS011;22766;48.042;11.192;2022-09-21T06:49:29;2.08;;;1.10;;
36827;SDS011;22766;48.042;11.192;2022-09-21T06:51:55;3.25;;;1.20;;
36827;SDS011;22766;48.042;11.192;2022-09-21T06:54:22;2.42;;;1.38;;
36827;SDS011;22766;48.042;11.192;2022-09-21T06:56:49;2.50;;;1.30;;
36827;SDS011;22766;48.042;11.192;2022-09-21T06:59:16;1.95;;;1.30;;
36827;SDS011;22766;48.042;11.192;2022-09-21T07:01:42;2.58;;;1.63;;
36827;SDS011;22766;48.042;11.192;2022-09-21T07:04:09;2.60;;;1.67;;
36827;SDS011;22766;48.042;11.192;2022-09-21T07:06:36;3.03;;;1.38;;
36827;SDS011;22766;48.042;11.192;2022-09-21T07:09:02;3.10;;;1.75;;
36827;SDS011;22766;48.042;11.192;2022-09-21T07:11:49;2.00;;;1.30;;
36827;SDS011;22766;48.042;11.192;2022-09-21T07:14:16;1.60;;;1.27;;
36827;SDS011;22766;48.042;11.192;2022-09-21T07:16:42;3.50;;;1.65;;
36827;SDS011;22766;48.042;11.192;2022-09-21T07:19:09;2.53;;;1.48;;
36827;SDS011;22766;48.042;11.192;2022-09-21T07:21:37;1.70;;;1.10;;
36827;SDS011;22766;48.042;11.192;2022-09-21T07:24:03;2.28;;;1.05;;
36827;SDS011;22766;48.042;11.192;2022-09-21T07:26:37;2.45;;;1.05;;
36827;SDS011;22766;48.042;11.192;2022-09-21T07:29:03;2.22;;;1.30;;
36827;SDS011;22766;48.042;11.192;2022-09-21T07:31:30;2.53;;;1.38;;
36827;SDS011;22766;48.042;11.192;2022-09-21T07:33:57;3.17;;;1.20;;
36827;SDS011;22766;48.042;11.192;2022-09-21T07:36:24;2.97;;;1.13;;
36827;SDS011;22766;48.042;11.192;2022-09-21T07:38:51;3.22;;;1.10;;
36827;SDS011;22766;48.042;11.192;2022-09-21T07:41:19;3.08;;;1.40;;
36827;SDS011;22766;48.042;11.192;2022-09-21T07:43:46;1.60;;;0.88;;
36827;SDS011;22766;48.042;11.192;2022-09-21T07:46:13;1.83;;;1.00;;
36827;SDS011;22766;48.042;11.192;2022-09-21T07:48:40;1.45;;;1.00;;
36827;SDS011;22766;48.042;11.192;2022-09-21T07:51:08;3.53;;;1.20;;
36827;SDS011;22766;48.042;11.192;2022-09-21T07:53:37;2.28;;;0.90;;
36827;SDS011;22766;48.042;11.192;2022-09-21T07:56:07;2.72;;;1.05;;
36827;SDS011;22766;48.042;11.192;2022-09-21T07:58:36;2.05;;;0.90;;
36827;SDS011;22766;48.042;11.192;2022-09-21T08:01:22;3.33;;;1.00;;
36827;SDS011;22766;48.042;11.192;2022-09-21T08:03:53;2.90;;;0.88;;
36827;SDS011;22766;48.042;11.192;2022-09-21T08:06:22;5.00;;;1.50;;
36827;SDS011;22766;48.042;11.192;2022-09-21T08:08:50;1.70;;;0.90;;
36827;SDS011;22766;48.042;11.192;2022-09-21T08:11:23;0.88;;;0.60;;
36827;SDS011;22766;48.042;11.192;2022-09-21T08:13:51;4.13;;;0.93;;
36827;SDS011;22766;48.042;11.192;2022-09-21T08:16:19;1.80;;;0.90;;
36827;SDS011;22766;48.042;11.192;2022-09-21T08:18:47;7.07;;;0.75;;
36827;SDS011;22766;48.042;11.192;2022-09-21T08:21:13;1.73;;;0.70;;
36827;SDS011;22766;48.042;11.192;2022-09-21T08:23:40;3.50;;;1.00;;
36827;SDS011;22766;48.042;11.192;2022-09-21T08:26:09;1.08;;;0.52;;
36827;SDS011;22766;48.042;11.192;2022-09-21T08:28:47;2.03;;;0.63;;
36827;SDS011;22766;48.042;11.192;2022-09-21T08:31:17;2.15;;;0.57;;
36827;SDS011;22766;48.042;11.192;2022-09-21T08:33:49;2.60;;;0.70;;
36827;SDS011;22766;48.042;11.192;2022-09-21T08:36:19;1.35;;;0.63;;
36827;SDS011;22766;48.042;11.192;2022-09-21T08:38:46;2.58;;;0.40;;
36827;SDS011;22766;48.042;11.192;2022-09-21T08:41:21;2.10;;;0.50;;
36827;SDS011;22766;48.042;11.192;2022-09-21T08:44:14;0.43;;;0.30;;
36827;SDS011;22766;48.042;11.192;2022-09-21T08:46:47;0.43;;;0.40;;
36827;SDS011;22766;48.042;11.192;2022-09-21T08:49:28;1.23;;;0.55;;
36827;SDS011;22766;48.042;11.192;2022-09-21T08:52:02;1.45;;;0.28;;
36827;SDS011;22766;48.042;11.192;2022-09-21T08:57:16;3.17;;;0.35;;
36827;SDS011;22766;48.042;11.192;2022-09-21T08:59:48;2.20;;;0.50;;
36827;SDS011;22766;48.042;11.192;2022-09-21T09:21:55;0.68;;;0.30;;
36827;SDS011;22766;48.042;11.192;2022-09-21T09:24:41;1.40;;;0.40;;
36827;SDS011;22766;48.042;11.192;2022-09-21T09:35:45;1.02;;;0.30;;
36827;SDS011;22766;48.042;11.192;2022-09-21T09:52:21;1.00;;;0.40;;
36827;SDS011;22766;48.042;11.192;2022-09-21T09:54:48;0.90;;;0.25;;
36827;SDS011;22766;48.042;11.192;2022-09-21T09:57:15;0.88;;;0.20;;
36827;SDS011;22766;48.042;11.192;2022-09-21T09:59:53;0.70;;;0.28;;
36827;SDS011;22766;48.042;11.192;2022-09-21T10:02:24;0.98;;;0.28;;
36827;SDS011;22766;48.042;11.192;2022-09-21T10:04:55;0.63;;;0.40;;
36827;SDS011;22766;48.042;11.192;2022-09-21T10:10:49;2.13;;;0.20;;
36827;SDS011;22766;48.042;11.192;2022-09-21T10:18:54;0.52;;;0.30;;
36827;SDS011;22766;48.042;11.192;2022-09-21T10:21:34;0.55;;;0.20;;
36827;SDS011;22766;48.042;11.192;2022-09-21T10:24:11;1.65;;;0.30;;
36827;SDS011;22766;48.042;11.192;2022-09-21T10:26:41;1.10;;;0.20;;
36827;SDS011;22766;48.042;11.192;2022-09-21T10:32:07;0.55;;;0.20;;
36827;SDS011;22766;48.042;11.192;2022-09-21T10:34:59;2.40;;;0.50;;
36827;SDS011;22766;48.042;11.192;2022-09-21T10:37:27;0.43;;;0.20;;
36827;SDS011;22766;48.042;11.192;2022-09-21T10:39:56;0.80;;;0.30;;
36827;SDS011;22766;48.042;11.192;2022-09-21T10:42:22;1.70;;;0.20;;
36827;SDS011;22766;48.042;11.192;2022-09-21T10:44:50;0.57;;;0.30;;
36827;SDS011;22766;48.042;11.192;2022-09-21T10:47:20;0.30;;;0.30;;
36827;SDS011;22766;48.042;11.192;2022-09-21T10:49:55;1.25;;;0.30;;
36827;SDS011;22766;48.042;11.192;2022-09-21T10:52:24;1.10;;;0.40;;
36827;SDS011;22766;48.042;11.192;2022-09-21T10:55:14;0.20;;;0.20;;
36827;SDS011;22766;48.042;11.192;2022-09-21T10:57:43;0.93;;;0.40;;
36827;SDS011;22766;48.042;11.192;2022-09-21T11:00:33;0.25;;;0.25;;
36827;SDS011;22766;48.042;11.192;2022-09-21T11:03:25;0.95;;;0.30;;
36827;SDS011;22766;48.042;11.192;2022-09-21T11:06:38;0.65;;;0.20;;
36827;SDS011;22766;48.042;11.192;2022-09-21T11:11:28;0.52;;;0.30;;
36827;SDS011;22766;48.042;11.192;2022-09-21T11:16:39;1.08;;;0.45;;
36827;SDS011;22766;48.042;11.192;2022-09-21T11:19:16;0.10;;;0.10;;
36827;SDS011;22766;48.042;11.192;2022-09-21T11:27:11;0.68;;;0.20;;
36827;SDS011;22766;48.042;11.192;2022-09-21T11:29:46;0.50;;;0.20;;
36827;SDS011;22766;48.042;11.192;2022-09-21T11:41:26;0.55;;;0.20;;
36827;SDS011;22766;48.042;11.192;2022-09-21T11:47:16;0.68;;;0.30;;
36827;SDS011;22766;48.042;11.192;2022-09-21T11:55:35;5.47;;;0.30;;
36827;SDS011;22766;48.042;11.192;2022-09-21T12:11:52;0.43;;;0.20;;
36827;SDS011;22766;48.042;11.192;2022-09-21T12:17:40;0.60;;;0.22;;
36827;SDS011;22766;48.042;11.192;2022-09-21T12:23:04;1.02;;;0.30;;
36827;SDS011;22766;48.042;11.192;2022-09-21T12:25:39;2.70;;;0.50;;
36827;SDS011;22766;48.042;11.192;2022-09-21T12:28:19;3.25;;;0.30;;
36827;SDS011;22766;48.042;11.192;2022-09-21T12:30:48;3.88;;;0.20;;
36827;SDS011;22766;48.042;11.192;2022-09-21T12:33:36;0.93;;;0.20;;
36827;SDS011;22766;48.042;11.192;2022-09-21T12:36:20;1.02;;;0.35;;
36827;SDS011;22766;48.042;11.192;2022-09-21T12:41:46;1.13;;;0.30;;
36827;SDS011;22766;48.042;11.192;2022-09-21T12:44:27;1.75;;;0.20;;
36827;SDS011;22766;48.042;11.192;2022-09-21T12:47:26;1.10;;;0.10;;
36827;SDS011;22766;48.042;11.192;2022-09-21T12:49:56;0.47;;;0.28;;
36827;SDS011;22766;48.042;11.192;2022-09-21T12:52:27;0.32;;;0.32;;
36827;SDS011;22766;48.042;11.192;2022-09-21T12:55:18;1.33;;;0.47;;
36827;SDS011;22766;48.042;11.192;2022-09-21T13:01:04;0.85;;;0.32;;
36827;SDS011;22766;48.042;11.192;2022-09-21T13:03:36;0.95;;;0.30;;
36827;SDS011;22766;48.042;11.192;2022-09-21T13:09:00;0.57;;;0.10;;
36827;SDS011;22766;48.042;11.192;2022-09-21T13:11:33;0.60;;;0.30;;
36827;SDS011;22766;48.042;11.192;2022-09-21T13:14:01;0.43;;;0.20;;
36827;SDS011;22766;48.042;11.192;2022-09-21T13:16:31;0.13;;;0.13;;
36827;SDS011;22766;48.042;11.192;2022-09-21T13:19:04;1.25;;;0.20;;
36827;SDS011;22766;48.042;11.192;2022-09-21T13:21:50;0.55;;;0.20;;
36827;SDS011;22766;48.042;11.192;2022-09-21T13:24:57;1.98;;;0.30;;
36827;SDS011;22766;48.042;11.192;2022-09-21T13:30:31;0.20;;;0.10;;
36827;SDS011;22766;48.042;11.192;2022-09-21T13:32:58;0.40;;;0.10;;
36827;SDS011;22766;48.042;11.192;2022-09-21T13:40:57;0.10;;;0.10;;
36827;SDS011;22766;48.042;11.192;2022-09-21T13:44:17;0.30;;;0.22;;
36827;SDS011;22766;48.042;11.192;2022-09-21T13:46:50;1.00;;;0.20;;
36827;SDS011;22766;48.042;11.192;2022-09-21T13:49:26;1.10;;;0.20;;
36827;SDS011;22766;48.042;11.192;2022-09-21T13:52:20;0.10;;;0.10;;
36827;SDS011;22766;48.042;11.192;2022-09-21T13:54:53;0.30;;;0.20;;
36827;SDS011;22766;48.042;11.192;2022-09-21T13:57:43;0.40;;;0.20;;
36827;SDS011;22766;48.042;11.192;2022-09-21T14:02:40;0.30;;;0.20;;
36827;SDS011;22766;48.042;11.192;2022-09-21T14:05:24;0.10;;;0.10;;
36827;SDS011;22766;48.042;11.192;2022-09-21T14:16:23;0.75;;;0.10;;
36827;SDS011;22766;48.042;11.192;2022-09-21T14:19:03;2.83;;;0.22;;
36827;SDS011;22766;48.042;11.192;2022-09-21T14:30:15;0.60;;;0.10;;
36827;SDS011;22766;48.042;11.192;2022-09-21T14:32:46;0.77;;;0.30;;
36827;SDS011;22766;48.042;11.192;2022-09-21T14:35:42;1.75;;;0.20;;
36827;SDS011;22766;48.042;11.192;2022-09-21T14:38:30;1.85;;;0.25;;
36827;SDS011;22766;48.042;11.192;2022-09-21T14:41:06;1.50;;;0.30;;
36827;SDS011;22766;48.042;11.192;2022-09-21T14:43:34;1.08;;;0.30;;
36827;SDS011;22766;48.042;11.192;2022-09-21T14:54:36;2.17;;;0.22;;
36827;SDS011;22766;48.042;11.192;2022-09-21T15:05:54;2.20;;;0.40;;
36827;SDS011;22766;48.042;11.192;2022-09-21T15:12:18;0.30;;;0.20;;
36827;SDS011;22766;48.042;11.192;2022-09-21T15:15:19;0.40;;;0.40;;
36827;SDS011;22766;48.042;11.192;2022-09-21T15:17:55;0.63;;;0.20;;
36827;SDS011;22766;48.042;11.192;2022-09-21T15:20:25;0.70;;;0.40;;
36827;SDS011;22766;48.042;11.192;2022-09-21T15:22:57;2.97;;;0.47;;
36827;SDS011;22766;48.042;11.192;2022-09-21T15:25:25;0.60;;;0.20;;
36827;SDS011;22766;48.042;11.192;2022-09-21T15:27:57;1.00;;;0.22;;
36827;SDS011;22766;48.042;11.192;2022-09-21T15:30:26;1.38;;;0.20;;
36827;SDS011;22766;48.042;11.192;2022-09-21T15:32:55;2.10;;;0.20;;
36827;SDS011;22766;48.042;11.192;2022-09-21T15:35:25;0.60;;;0.20;;
36827;SDS011;22766;48.042;11.192;2022-09-21T15:37:54;0.75;;;0.10;;
36827;SDS011;22766;48.042;11.192;2022-09-21T15:40:26;2.97;;;0.38;;
36827;SDS011;22766;48.042;11.192;2022-09-21T15:45:27;0.20;;;0.20;;
36827;SDS011;22766;48.042;11.192;2022-09-21T15:47:55;2.25;;;0.20;;
36827;SDS011;22766;48.042;11.192;2022-09-21T15:50:23;0.40;;;0.20;;
36827;SDS011;22766;48.042;11.192;2022-09-21T15:52:56;0.50;;;0.30;;
36827;SDS011;22766;48.042;11.192;2022-09-21T15:55:27;0.32;;;0.20;;
36827;SDS011;22766;48.042;11.192;2022-09-21T15:57:55;0.43;;;0.20;;
36827;SDS011;22766;48.042;11.192;2022-09-21T16:00:25;1.80;;;0.35;;
36827;SDS011;22766;48.042;11.192;2022-09-21T16:05:31;1.25;;;0.30;;
36827;SDS011;22766;48.042;11.192;2022-09-21T16:08:06;0.80;;;0.30;;
36827;SDS011;22766;48.042;11.192;2022-09-21T16:10:42;1.50;;;0.30;;
36827;SDS011;22766;48.042;11.192;2022-09-21T16:16:02;1.73;;;0.63;;
36827;SDS011;22766;48.042;11.192;2022-09-21T16:21:07;2.55;;;0.80;;
36827;SDS011;22766;48.042;11.192;2022-09-21T16:24:10;0.88;;;0.40;;
36827;SDS011;22766;48.042;11.192;2022-09-21T16:27:03;0.80;;;0.43;;
36827;SDS011;22766;48.042;11.192;2022-09-21T16:29:37;0.52;;;0.30;;
36827;SDS011;22766;48.042;11.192;2022-09-21T16:34:51;0.25;;;0.25;;
36827;SDS011;22766;48.042;11.192;2022-09-21T16:39:54;2.67;;;0.40;;
36827;SDS011;22766;48.042;11.192;2022-09-21T16:42:22;0.88;;;0.50;;
36827;SDS011;22766;48.042;11.192;2022-09-21T16:44:52;1.15;;;0.43;;
36827;SDS011;22766;48.042;11.192;2022-09-21T16:47:20;1.38;;;0.50;;
36827;SDS011;22766;48.042;11.192;2022-09-21T16:49:51;0.93;;;0.38;;
36827;SDS011;22766;48.042;11.192;2022-09-21T16:52:28;1.13;;;0.20;;
36827;SDS011;22766;48.042;11.192;2022-09-21T16:54:55;0.55;;;0.30;;
36827;SDS011;22766;48.042;11.192;2022-09-21T16:57:24;0.10;;;0.10;;
36827;SDS011;22766;48.042;11.192;2022-09-21T16:59:51;0.30;;;0.30;;
36827;SDS011;22766;48.042;11.192;2022-09-21T17:02:18;0.57;;;0.38;;
36827;SDS011;22766;48.042;11.192;2022-09-21T17:04:45;0.68;;;0.43;;
36827;SDS011;22766;48.042;11.192;2022-09-21T17:07:13;0.85;;;0.20;;
36827;SDS011;22766;48.042;11.192;2022-09-21T17:09:43;0.60;;;0.35;;
36827;SDS011;22766;48.042;11.192;2022-09-21T17:12:13;0.30;;;0.30;;
36827;SDS011;22766;48.042;11.192;2022-09-21T17:14:42;0.40;;;0.40;;
36827;SDS011;22766;48.042;11.192;2022-09-21T17:17:17;0.85;;;0.52;;
36827;SDS011;22766;48.042;11.192;2022-09-21T17:19:46;0.77;;;0.55;;
36827;SDS011;22766;48.042;11.192;2022-09-21T17:22:15;1.40;;;0.60;;
36827;SDS011;22766;48.042;11.192;2022-09-21T17:24:47;2.47;;;0.93;;
36827;SDS011;22766;48.042;11.192;2022-09-21T17:27:18;2.03;;;0.80;;
36827;SDS011;22766;48.042;11.192;2022-09-21T17:29:46;0.90;;;0.60;;
36827;SDS011;22766;48.042;11.192;2022-09-21T17:32:18;2.50;;;0.93;;
36827;SDS011;22766;48.042;11.192;2022-09-21T17:35:08;1.20;;;0.50;;
36827;SDS011;22766;48.042;11.192;2022-09-21T17:37:37;0.82;;;0.60;;
36827;SDS011;22766;48.042;11.192;2022-09-21T17:40:04;0.80;;;0.50;;
36827;SDS011;22766;48.042;11.192;2022-09-21T17:42:40;2.03;;;0.90;;
36827;SDS011;22766;48.042;11.192;2022-09-21T17:47:39;2.53;;;0.85;;
36827;SDS011;22766;48.042;11.192;2022-09-21T17:50:14;3.33;;;1.10;;
36827;SDS011;22766;48.042;11.192;2022-09-21T17:52:44;4.53;;;1.60;;
36827;SDS011;22766;48.042;11.192;2022-09-21T17:55:30;4.45;;;2.17;;
36827;SDS011;22766;48.042;11.192;2022-09-21T17:58:20;7.32;;;2.17;;
36827;SDS011;22766;48.042;11.192;2022-09-21T18:01:10;4.07;;;1.55;;
36827;SDS011;22766;48.042;11.192;2022-09-21T18:03:39;3.03;;;1.20;;
36827;SDS011;22766;48.042;11.192;2022-09-21T18:06:08;1.98;;;0.90;;
36827;SDS011;22766;48.042;11.192;2022-09-21T18:08:36;2.35;;;1.00;;
36827;SDS011;22766;48.042;11.192;2022-09-21T18:22:01;3.88;;;0.80;;
36827;SDS011;22766;48.042;11.192;2022-09-21T18:24:39;2.55;;;0.90;;
36827;SDS011;22766;48.042;11.192;2022-09-21T18:27:09;4.55;;;0.98;;
36827;SDS011;22766;48.042;11.192;2022-09-21T18:29:37;1.30;;;0.70;;
36827;SDS011;22766;48.042;11.192;2022-09-21T18:46:00;0.85;;;0.60;;
36827;SDS011;22766;48.042;11.192;2022-09-21T18:53:50;2.10;;;0.75;;
36827;SDS011;22766;48.042;11.192;2022-09-21T18:56:22;1.25;;;0.70;;
36827;SDS011;22766;48.042;11.192;2022-09-21T18:58:50;3.05;;;0.93;;
36827;SDS011;22766;48.042;11.192;2022-09-21T19:01:20;2.40;;;0.73;;
36827;SDS011;22766;48.042;11.192;2022-09-21T19:03:48;1.08;;;0.73;;
36827;SDS011;22766;48.042;11.192;2022-09-21T19:09:17;2.03;;;1.08;;
36827;SDS011;22766;48.042;11.192;2022-09-21T19:12:15;1.92;;;1.10;;